Time;durP1;ratioP1;P1;durP2;ratioP2;P2;SDS_P1;SDS_P2;PMS_P1;PMS_P2;Temp;Humidity;BMP_temperature;BMP_pressure;BME280_temperature;BME280_humidity;BME280_pressure;Samples;Min_cycle;Max_cycle;Signal;HPM_P1;HPM_P2
2022/06/15 00:01:35;;;;;;;;;;;;;;;13.01;100.00;102104.44;5044083;28;19924;-32
2022/06/15 00:04:04;;;;;;;;;;;;;;;12.99;100.00;102101.09;5040942;28;20033;-36
2022/06/15 00:06:37;;;;;;;;;;;;;;;12.95;100.00;102100.81;5043918;28;19963;-34
2022/06/15 00:09:07;;;;;;;;;;;;;;;12.94;100.00;102101.09;5041763;28;19925;-39
2022/06/15 00:11:35;;;;;;;;;;;;;;;12.90;100.00;102098.03;5043305;28;19929;-35
2022/06/15 00:14:04;;;;;;;;;;;;;;;12.87;100.00;102092.16;5041651;28;19925;-34
2022/06/15 00:16:32;;;;;;;;;;;;;;;12.83;100.00;102102.25;5043652;28;20382;-31
2022/06/15 00:19:00;;;;;;;;;;;;;;;12.80;100.00;102103.66;5042123;28;19932;-34
2022/06/15 00:21:29;;;;;;;;;;;;;;;12.77;100.00;102099.47;5043846;28;20246;-34
2022/06/15 00:23:57;;;;;;;;;;;;;;;12.75;100.00;102101.72;5044147;28;19925;-32
2022/06/15 00:26:24;;;;;;;;;;;;;;;12.72;100.00;102104.25;5043242;28;19933;-37
2022/06/15 00:28:52;;;;;;;;;;;;;;;12.68;100.00;102108.72;5042784;28;19931;-33
2022/06/15 00:31:20;;;;;;;;;;;;;;;12.64;100.00;102108.44;5034222;28;19925;-34
2022/06/15 00:33:48;;;;;;;;;;;;;;;12.61;100.00;102114.59;5038302;28;19935;-39
2022/06/15 00:36:17;;;;;;;;;;;;;;;12.59;100.00;102111.25;5038835;28;20012;-32
2022/06/15 00:38:47;;;;;;;;;;;;;;;12.55;100.00;102112.97;5037316;28;20425;-36
2022/06/15 00:41:16;;;;;;;;;;;;;;;12.51;100.00;102113.78;5038092;28;20317;-37
2022/06/15 00:43:45;;;;;;;;;;;;;;;12.48;100.00;102118.00;5038831;28;19961;-35
2022/06/15 00:46:16;;;;;;;;;;;;;;;12.43;100.00;102115.19;5039149;28;20401;-35
2022/06/15 00:48:45;;;;;;;;;;;;;;;12.39;100.00;102108.47;5038887;28;19933;-33
2022/06/15 00:51:14;;;;;;;;;;;;;;;12.35;100.00;102112.97;5041216;28;19932;-36
2022/06/15 00:53:42;;;;;;;;;;;;;;;12.32;100.00;102119.97;5036688;28;20028;-32
2022/06/15 00:56:11;;;;;;;;;;;;;;;12.28;100.00;102115.19;5041443;28;20333;-33
2022/06/15 00:58:41;;;;;;;;;;;;;;;12.23;100.00;102118.00;5038688;28;20034;-34
2022/06/15 01:01:08;;;;;;;;;;;;;;;12.18;100.00;102112.41;5040265;28;19935;-41
2022/06/15 01:03:37;;;;;;;;;;;;;;;12.15;100.00;102112.97;5038824;28;19929;-40
2022/06/15 01:06:10;;;;;;;;;;;;;;;12.11;100.00;102112.69;5041060;28;20420;-34
2022/06/15 01:08:40;;;;;;;;;;;;;;;12.08;100.00;102113.25;5040172;28;20019;-34
2022/06/15 01:11:21;;;;;;;;;;;;;;;12.04;100.00;102112.09;5044662;28;19925;-33
2022/06/15 01:13:56;;;;;;;;;;;;;;;12.00;100.00;102109.03;5044363;28;20273;-29
2022/06/15 01:16:32;;;;;;;;;;;;;;;11.96;100.00;102107.09;5042712;28;19932;-31
2022/06/15 01:19:05;;;;;;;;;;;;;;;11.91;100.00;102107.91;5047340;28;20477;-33
2022/06/15 01:21:38;;;;;;;;;;;;;;;11.88;100.00;102105.66;5043917;28;19966;-33
2022/06/15 01:24:27;;;;;;;;;;;;;;;11.86;100.00;102102.31;5045914;28;19929;-33
2022/06/15 01:27:21;;;;;;;;;;;;;;;11.85;100.00;102100.63;5043416;28;19925;-31
2022/06/15 01:30:04;;;;;;;;;;;;;;;11.82;100.00;102094.75;5045956;28;19933;-35
2022/06/15 01:32:36;;;;;;;;;;;;;;;11.80;100.00;102092.22;5036096;28;20024;-33
2022/06/15 01:35:10;;;;;;;;;;;;;;;11.77;100.00;102084.41;5043353;28;19925;-39
2022/06/15 01:37:41;;;;;;;;;;;;;;;11.75;100.00;102086.59;5044190;28;19976;-33
2022/06/15 01:40:14;;;;;;;;;;;;;;;11.74;100.00;102082.97;5041840;28;19932;-31
2022/06/15 01:42:44;;;;;;;;;;;;;;;11.74;100.00;102080.19;5043827;28;20448;-32
2022/06/15 01:45:13;;;;;;;;;;;;;;;11.75;100.00;102075.41;5040654;28;19925;-33
2022/06/15 01:47:46;;;;;;;;;;;;;;;11.74;100.00;102073.75;5043113;28;19952;-35
2022/06/15 01:50:17;;;;;;;;;;;;;;;11.74;100.00;102074.56;5039886;28;19972;-31
2022/06/15 01:52:47;;;;;;;;;;;;;;;11.74;100.00;102068.16;5042778;28;19925;-35
2022/06/15 01:55:18;;;;;;;;;;;;;;;11.73;100.00;102072.91;5041842;28;19925;-40
2022/06/15 01:57:47;;;;;;;;;;;;;;;11.71;100.00;102063.94;5043181;28;20305;-37
2022/06/15 02:00:19;;;;;;;;;;;;;;;11.70;100.00;102067.00;5040526;28;19932;-32
2022/06/15 02:02:56;;;;;;;;;;;;;;;11.69;100.00;102070.94;5042584;28;19986;-38
2022/06/15 02:05:29;;;;;;;;;;;;;;;11.67;100.00;102064.78;5039488;28;20447;-38
2022/06/15 02:08:00;;;;;;;;;;;;;;;11.63;100.00;102058.88;5042751;28;19948;-30
2022/06/15 02:10:32;;;;;;;;;;;;;;;11.59;100.00;102062.53;5040915;28;19964;-36
2022/06/15 02:13:02;;;;;;;;;;;;;;;11.57;100.00;102067.56;5042711;28;19929;-34
2022/06/15 02:15:31;;;;;;;;;;;;;;;11.52;100.00;102062.78;5039806;28;19951;-33
2022/06/15 02:18:10;;;;;;;;;;;;;;;11.49;100.00;102060.53;5040921;28;19929;-38
2022/06/15 02:20:39;;;;;;;;;;;;;;;11.47;100.00;102056.34;5030850;28;20341;-36
2022/06/15 02:23:10;;;;;;;;;;;;;;;11.43;100.00;102061.63;5040951;28;19975;-36
2022/06/15 02:25:39;;;;;;;;;;;;;;;11.41;100.00;102058.28;5038902;28;19936;-37
2022/06/15 02:28:10;;;;;;;;;;;;;;;11.38;100.00;102053.25;5039623;28;19982;-31
2022/06/15 02:30:42;;;;;;;;;;;;;;;11.37;100.00;102049.63;5039509;28;20400;-37
2022/06/15 02:33:14;;;;;;;;;;;;;;;11.35;100.00;102051.84;5048948;28;19932;-33
2022/06/15 02:35:42;;;;;;;;;;;;;;;11.36;100.00;102049.91;5042986;28;19975;-34
2022/06/15 02:38:14;;;;;;;;;;;;;;;11.33;100.00;102053.25;5043746;28;19975;-33
2022/06/15 02:40:42;;;;;;;;;;;;;;;11.29;100.00;102050.16;5043625;28;20372;-38
2022/06/15 02:43:13;;;;;;;;;;;;;;;11.29;100.00;102052.94;5043470;28;19932;-37
2022/06/15 02:45:45;;;;;;;;;;;;;;;11.27;100.00;102046.78;5043723;28;19932;-30
2022/06/15 02:48:15;;;;;;;;;;;;;;;11.26;100.00;102045.09;5044123;28;20271;-37
2022/06/15 02:50:48;;;;;;;;;;;;;;;11.24;100.00;102040.91;5044159;28;20308;-32
2022/06/15 02:53:17;;;;;;;;;;;;;;;11.23;100.00;102048.44;5044832;28;19925;-30
2022/06/15 02:55:46;;;;;;;;;;;;;;;11.21;100.00;102045.09;5044280;28;20066;-30
2022/06/15 02:58:15;;;;;;;;;;;;;;;11.20;100.00;102037.81;5044141;28;19952;-31
2022/06/15 03:00:47;;;;;;;;;;;;;;;11.21;100.00;102047.88;5042672;28;19932;-28
2022/06/15 03:03:22;;;;;;;;;;;;;;;11.21;100.00;102050.69;5044007;28;19928;-31
2022/06/15 03:05:55;;;;;;;;;;;;;;;11.21;100.00;102052.63;5042842;28;20354;-38
2022/06/15 03:08:23;;;;;;;;;;;;;;;11.18;100.00;102044.81;5044328;28;20007;-35
2022/06/15 03:10:58;;;;;;;;;;;;;;;11.16;100.00;102045.09;5042004;28;19929;-35
2022/06/15 03:13:27;;;;;;;;;;;;;;;11.15;100.00;102046.22;5043064;28;19928;-35
2022/06/15 03:15:59;;;;;;;;;;;;;;;11.14;100.00;102044.53;5040290;28;19937;-33
2022/06/15 03:18:29;;;;;;;;;;;;;;;11.12;100.00;102045.91;5038727;28;20306;-36
2022/06/15 03:21:03;;;;;;;;;;;;;;;11.11;100.00;102052.59;5040656;28;19944;-35
2022/06/15 03:23:32;;;;;;;;;;;;;;;11.09;100.00;102050.09;5040110;28;19949;-36
2022/06/15 03:26:01;;;;;;;;;;;;;;;11.09;100.00;102055.66;5040916;28;19925;-32
2022/06/15 03:28:35;;;;;;;;;;;;;;;11.08;100.00;102051.19;5036237;28;19968;-31
2022/06/15 03:31:04;;;;;;;;;;;;;;;11.07;100.00;102046.72;5039021;28;20428;-33
2022/06/15 03:33:35;;;;;;;;;;;;;;;11.08;100.00;102048.41;5035241;28;20101;-26
2022/06/15 03:36:08;;;;;;;;;;;;;;;11.09;100.00;102049.25;5038088;28;19963;-29
2022/06/15 03:38:36;;;;;;;;;;;;;;;11.10;100.00;102054.56;5041700;28;19925;-33
2022/06/15 03:41:12;;;;;;;;;;;;;;;11.11;100.00;102055.41;5039070;28;20031;-35
2022/06/15 03:43:40;;;;;;;;;;;;;;;11.10;100.00;102054.56;5041845;28;19933;-32
2022/06/15 03:46:09;;;;;;;;;;;;;;;11.10;100.00;102048.97;5040669;28;20015;-31
2022/06/15 03:48:41;;;;;;;;;;;;;;;11.11;100.00;102052.59;5043128;28;19925;-34
2022/06/15 03:51:10;;;;;;;;;;;;;;;11.12;100.00;102048.69;5040518;28;19925;-35
2022/06/15 03:53:48;;;;;;;;;;;;;;;11.13;100.00;102056.81;5027541;28;19938;-31
2022/06/15 03:56:16;;;;;;;;;;;;;;;11.14;100.00;102047.31;5040215;28;19975;-35
2022/06/15 03:58:45;;;;;;;;;;;;;;;11.19;100.00;102052.09;5038089;28;19932;-33
2022/06/15 04:01:16;;;;;;;;;;;;;;;11.24;100.00;102052.09;5038106;28;20427;-30
2022/06/15 04:03:46;;;;;;;;;;;;;;;11.27;100.00;102052.38;5037104;28;19947;-33
2022/06/15 04:06:19;;;;;;;;;;;;;;;11.29;100.00;102057.69;5037708;28;19978;-31
2022/06/15 04:08:51;;;;;;;;;;;;;;;11.31;100.00;102053.53;5038138;28;20389;-35
2022/06/15 04:14:13;;;;;;;;;;;;;;;11.38;100.00;102051.31;5047513;28;19940;-33
2022/06/15 04:16:46;;;;;;;;;;;;;;;11.43;100.00;102041.22;5037461;28;19978;-33
2022/06/15 04:19:15;;;;;;;;;;;;;;;11.49;100.00;102054.94;5036978;28;19951;-30
2022/06/15 04:21:45;;;;;;;;;;;;;;;11.52;100.00;102051.63;5037746;28;19974;-37
2022/06/15 04:24:14;;;;;;;;;;;;;;;11.58;100.00;102058.06;5041433;28;20460;-32
2022/06/15 04:26:43;;;;;;;;;;;;;;;11.65;100.00;102053.03;5040305;28;19925;-33
2022/06/15 04:29:15;;;;;;;;;;;;;;;11.74;100.00;102068.16;5041189;28;20370;-32
2022/06/15 04:31:43;;;;;;;;;;;;;;;11.81;100.00;102062.28;5035394;28;19935;-37
2022/06/15 04:34:12;;;;;;;;;;;;;;;11.87;100.00;102062.03;5036467;28;19925;-27
2022/06/15 04:36:42;;;;;;;;;;;;;;;11.94;100.00;102062.59;5034372;28;20286;-30
2022/06/15 04:39:12;;;;;;;;;;;;;;;12.01;100.00;102065.94;5040686;28;19967;-36
2022/06/15 04:41:42;;;;;;;;;;;;;;;12.06;100.00;102063.16;5040647;28;19925;-31
2022/06/15 04:44:11;;;;;;;;;;;;;;;12.14;100.00;102070.16;5040391;28;19964;-35
2022/06/15 04:46:41;;;;;;;;;;;;;;;12.23;100.00;102064.81;5040146;28;20377;-34
2022/06/15 04:49:10;;;;;;;;;;;;;;;12.31;100.00;102070.69;5033044;28;19931;-37
2022/06/15 04:51:49;;;;;;;;;;;;;;;12.41;100.00;102067.88;5040673;28;19928;-30
2022/06/15 04:54:17;;;;;;;;;;;;;;;12.50;100.00;102068.16;5037420;28;20087;-30
2022/06/15 04:56:46;;;;;;;;;;;;;;;12.59;100.00;102077.66;5040761;28;20373;-34
2022/06/15 04:59:17;;;;;;;;;;;;;;;12.68;100.00;102077.91;5037810;28;19932;-33
2022/06/15 05:01:46;;;;;;;;;;;;;;;12.77;100.00;102081.84;5040807;28;20306;-36
2022/06/15 05:04:16;;;;;;;;;;;;;;;12.86;100.00;102077.31;5038469;28;19929;-31
2022/06/15 05:06:43;;;;;;;;;;;;;;;12.93;100.00;102069.44;5035046;28;19959;-38
2022/06/15 05:09:14;;;;;;;;;;;;;;;13.02;100.00;102073.31;5038452;28;19975;-32
2022/06/15 05:11:44;;;;;;;;;;;;;;;13.11;100.00;102070.78;5040341;28;19939;-37
2022/06/15 05:14:13;;;;;;;;;;;;;;;13.20;100.00;102080.28;5037740;28;20032;-33
2022/06/15 05:16:44;;;;;;;;;;;;;;;13.31;100.00;102081.09;5039466;28;20287;-32
2022/06/15 05:19:16;;;;;;;;;;;;;;;13.40;100.00;102082.16;5035279;28;19931;-33
2022/06/15 05:21:44;;;;;;;;;;;;;;;13.50;100.00;102089.69;5041323;28;19976;-34
2022/06/15 05:24:16;;;;;;;;;;;;;;;13.60;100.00;102072.78;5040975;28;19933;-29
2022/06/15 05:26:52;;;;;;;;;;;;;;;13.70;100.00;102075.53;5036068;28;20365;-40
2022/06/15 05:29:22;;;;;;;;;;;;;;;13.78;100.00;102075.78;5033442;28;20305;-30
2022/06/15 05:31:55;;;;;;;;;;;;;;;13.88;100.00;102082.41;5039857;28;20356;-31
2022/06/15 05:34:24;;;;;;;;;;;;;;;13.96;100.00;102082.66;5023654;28;19925;-32
2022/06/15 05:36:51;;;;;;;;;;;;;;;14.05;100.00;102083.69;5036523;28;19933;-35
2022/06/15 05:39:20;;;;;;;;;;;;;;;14.13;100.00;102077.47;5036177;28;19975;-28
2022/06/15 05:41:50;;;;;;;;;;;;;;;14.21;100.00;102078.78;5039285;28;19932;-35
2022/06/15 05:44:21;;;;;;;;;;;;;;;14.31;100.00;102083.47;5037014;28;19928;-34
2022/06/15 05:46:55;;;;;;;;;;;;;;;14.40;100.00;102084.50;5038010;28;19929;-36
2022/06/15 05:50:01;;;;;;;;;;;;;;;14.53;100.00;102085.84;5026570;28;20337;-34
2022/06/15 05:52:38;;;;;;;;;;;;;;;14.64;100.00;102081.78;5034832;28;19931;-35
2022/06/15 05:55:09;;;;;;;;;;;;;;;14.73;100.00;102082.81;5041506;28;19937;-33
2022/06/15 05:57:38;;;;;;;;;;;;;;;14.80;100.00;102084.13;5043609;28;20016;-35
2022/06/15 06:00:06;;;;;;;;;;;;;;;14.91;100.00;102082.03;5045637;28;19933;-32
2022/06/15 06:02:40;;;;;;;;;;;;;;;15.01;100.00;102086.69;5037412;28;19940;-29
2022/06/15 06:05:09;;;;;;;;;;;;;;;15.08;100.00;102082.41;5041753;28;19935;-32
2022/06/15 06:07:36;;;;;;;;;;;;;;;15.17;100.00;102079.78;5040400;28;19963;-39
2022/06/15 06:10:04;;;;;;;;;;;;;;;15.28;100.00;102081.31;5040626;28;20108;-30
2022/06/15 06:12:33;;;;;;;;;;;;;;;15.39;100.00;102079.19;5040136;28;19929;-31
2022/06/15 06:15:01;;;;;;;;;;;;;;;15.52;100.00;102082.09;5047356;28;20019;-36
2022/06/15 06:17:28;;;;;;;;;;;;;;;15.63;100.00;102082.81;5042023;28;20342;-33
2022/06/15 06:19:56;;;;;;;;;;;;;;;15.74;100.00;102077.88;5045513;28;19928;-34
2022/06/15 06:22:24;;;;;;;;;;;;;;;15.89;100.00;102074.81;5035483;28;20020;-36
2022/06/15 06:24:51;;;;;;;;;;;;;;;16.02;100.00;102090.94;5040363;28;19953;-33
2022/06/15 06:27:19;;;;;;;;;;;;;;;16.19;100.00;102085.59;5042620;28;19931;-31
2022/06/15 06:29:48;;;;;;;;;;;;;;;16.36;100.00;102079.41;5039491;28;19932;-37
2022/06/15 06:32:17;;;;;;;;;;;;;;;16.62;100.00;102090.19;5038444;28;20378;-28
2022/06/15 06:34:45;;;;;;;;;;;;;;;16.88;100.00;102086.63;5040719;28;19937;-35
2022/06/15 06:37:14;;;;;;;;;;;;;;;17.23;100.00;102085.03;5042957;28;20330;-39
2022/06/15 06:39:41;;;;;;;;;;;;;;;17.68;100.00;102082.41;5044936;28;20194;-38
2022/06/15 06:42:10;;;;;;;;;;;;;;;18.18;100.00;102082.34;5042683;28;19925;-38
2022/06/15 06:44:38;;;;;;;;;;;;;;;18.73;100.00;102074.41;5045335;28;19925;-36
2022/06/15 06:47:08;;;;;;;;;;;;;;;19.29;100.00;102089.75;5043205;28;19975;-36
2022/06/15 06:49:37;;;;;;;;;;;;;;;19.75;95.84;102088.41;5045481;28;19933;-38
2022/06/15 06:52:05;;;;;;;;;;;;;;;20.01;90.04;102094.06;5043961;28;19966;-31
2022/06/15 06:54:33;;;;;;;;;;;;;;;20.37;90.67;102090.91;5045534;28;20400;-32
2022/06/15 06:57:00;;;;;;;;;;;;;;;20.85;87.45;102099.97;5045330;28;20306;-30
2022/06/15 06:59:28;;;;;;;;;;;;;;;21.41;83.46;102097.91;5044740;28;20013;-34
2022/06/15 07:01:56;;;;;;;;;;;;;;;21.94;76.30;102099.22;5044313;28;20344;-32
2022/06/15 07:04:25;;;;;;;;;;;;;;;22.36;76.90;102096.38;5045185;28;20016;-37
2022/06/15 07:06:55;;;;;;;;;;;;;;;22.75;69.78;102094.97;5038872;28;20251;-31
2022/06/15 07:09:23;;;;;;;;;;;;;;;23.06;69.04;102102.97;5040161;28;19925;-32
2022/06/15 07:11:50;;;;;;;;;;;;;;;23.41;66.19;102098.47;5040245;28;19983;-30
2022/06/15 07:14:18;;;;;;;;;;;;;;;23.84;64.05;102100.72;5039491;28;19925;-37
2022/06/15 07:16:45;;;;;;;;;;;;;;;24.25;61.57;102101.56;5041766;28;20305;-31
2022/06/15 07:19:14;;;;;;;;;;;;;;;24.46;56.09;102095.66;5043125;28;19925;-31
2022/06/15 07:21:43;;;;;;;;;;;;;;;24.71;59.99;102108.63;5044193;28;20386;-42
2022/06/15 07:24:11;;;;;;;;;;;;;;;25.10;55.79;102103.97;5042688;28;19925;-34
2022/06/15 07:26:42;;;;;;;;;;;;;;;25.47;57.21;102110.22;5045134;28;20424;-36
2022/06/15 07:29:11;;;;;;;;;;;;;;;26.00;57.00;102114.34;5041667;28;20359;-34
2022/06/15 07:31:41;;;;;;;;;;;;;;;26.40;53.73;102107.47;5043402;28;19931;-34
2022/06/15 07:34:10;;;;;;;;;;;;;;;26.80;52.33;102111.94;5037069;28;20367;-38
2022/06/15 07:36:39;;;;;;;;;;;;;;;26.92;45.34;102106.88;5044587;28;19929;-44
2022/06/15 07:39:08;;;;;;;;;;;;;;;27.10;50.93;102118.69;5042414;28;20012;-32
2022/06/15 07:41:36;;;;;;;;;;;;;;;27.31;47.11;102112.50;5044218;28;19951;-31
2022/06/15 07:44:04;;;;;;;;;;;;;;;27.65;46.86;102105.72;5042146;28;19932;-33
2022/06/15 07:46:31;;;;;;;;;;;;;;;27.96;46.55;102106.59;5044651;28;19925;-31
2022/06/15 07:51:46;;;;;;;;;;;;;;;28.45;41.43;102100.69;5029976;28;19924;-31
2022/06/15 07:54:16;;;;;;;;;;;;;;;28.56;45.13;102095.06;5041180;28;20460;-30
2022/06/15 07:56:45;;;;;;;;;;;;;;;28.97;43.76;102095.97;5038342;28;19929;-32
2022/06/15 07:59:13;;;;;;;;;;;;;;;29.32;42.78;102092.56;5039446;28;19932;-34
2022/06/15 08:01:41;;;;;;;;;;;;;;;29.53;40.36;102100.56;5039739;28;19939;-31
2022/06/15 08:04:09;;;;;;;;;;;;;;;29.52;37.53;102102.63;5039275;28;20389;-38
2022/06/15 08:06:38;;;;;;;;;;;;;;;29.51;39.15;102100.13;5039538;28;19925;-31
2022/06/15 08:09:09;;;;;;;;;;;;;;;29.62;40.08;102104.72;5041267;28;19929;-41
2022/06/15 08:11:38;;;;;;;;;;;;;;;29.98;39.58;102099.22;5039093;28;19925;-39
2022/06/15 08:14:06;;;;;;;;;;;;;;;30.33;39.05;102105.16;5039042;28;19943;-37
2022/06/15 08:16:34;;;;;;;;;;;;;;;30.33;35.48;102108.06;5037584;28;19936;-39
2022/06/15 08:19:02;;;;;;;;;;;;;;;29.93;33.19;102102.47;5039270;28;20019;-34
2022/06/15 08:21:32;;;;;;;;;;;;;;;29.51;35.31;102109.59;5039344;28;20394;-30
2022/06/15 08:24:00;;;;;;;;;;;;;;;29.14;37.34;102106.78;5043345;28;19925;-31
2022/06/15 08:26:30;;;;;;;;;;;;;;;29.19;36.17;102111.31;5041664;28;20270;-38
2022/06/15 08:29:01;;;;;;;;;;;;;;;29.44;38.99;102104.59;5043877;28;19925;-41
2022/06/15 08:31:28;;;;;;;;;;;;;;;29.73;36.71;102102.75;5040510;28;19928;-34
2022/06/15 08:33:56;;;;;;;;;;;;;;;29.87;37.70;102099.16;5041282;28;19932;-31
2022/06/15 08:36:24;;;;;;;;;;;;;;;29.85;33.89;102100.78;5041135;28;19929;-33
2022/06/15 08:38:51;;;;;;;;;;;;;;;29.92;37.93;102100.81;5041897;28;20362;-38
2022/06/15 08:41:22;;;;;;;;;;;;;;;30.18;34.93;102096.88;5040992;28;20015;-39
2022/06/15 08:43:57;;;;;;;;;;;;;;;30.40;34.29;102090.78;5043471;28;20453;-38
2022/06/15 08:46:32;;;;;;;;;;;;;;;30.28;33.11;102091.16;5040472;28;19925;-30
2022/06/15 08:49:11;;;;;;;;;;;;;;;30.21;36.14;102091.13;5043806;28;19932;-36
2022/06/15 08:51:40;;;;;;;;;;;;;;;30.39;32.60;102096.94;5040255;28;19929;-40
2022/06/15 08:54:10;;;;;;;;;;;;;;;30.37;32.27;102097.38;5043620;28;20297;-32
2022/06/15 08:56:40;;;;;;;;;;;;;;;30.47;35.87;102093.69;5040971;28;20019;-40
2022/06/15 08:59:11;;;;;;;;;;;;;;;30.52;32.06;102083.84;5042563;28;19952;-40
2022/06/15 09:01:42;;;;;;;;;;;;;;;30.44;34.80;102077.22;5040767;28;19931;-40
2022/06/15 09:04:19;;;;;;;;;;;;;;;30.62;35.98;102076.47;5043212;28;19925;-32
2022/06/15 09:06:50;;;;;;;;;;;;;;;31.10;36.88;102072.00;5040102;28;20015;-34
2022/06/15 09:09:23;;;;;;;;;;;;;;;31.48;35.98;102079.03;5043199;28;19935;-39
2022/06/15 09:12:49;;;;;;;;;;;;;;;31.71;32.98;102081.50;5041324;28;20019;-36
2022/06/15 09:14:51;;;;;;;;;;;;;;;31.44;32.45;102078.19;5030656;28;20020;-31
2022/06/15 09:17:22;;;;;;;;;;;;;;;31.15;34.16;102085.25;5040922;28;19929;-36
2022/06/15 09:19:54;;;;;;;;;;;;;;;31.38;35.17;102087.69;5037496;28;19925;-34
2022/06/15 09:22:25;;;;;;;;;;;;;;;31.69;32.50;102088.91;5040950;28;19931;-33
2022/06/15 09:24:54;;;;;;;;;;;;;;;31.91;33.68;102089.69;5038155;28;19998;-32
2022/06/15 09:27:23;;;;;;;;;;;;;;;32.19;32.76;102084.63;5039440;28;19929;-36
2022/06/15 09:29:53;;;;;;;;;;;;;;;32.40;32.45;102082.91;5042062;28;19932;-33
2022/06/15 09:32:24;;;;;;;;;;;;;;;32.46;32.17;102087.00;5029064;28;19939;-36
2022/06/15 09:34:54;;;;;;;;;;;;;;;32.46;31.27;102089.91;5046291;28;19925;-36
2022/06/15 09:37:23;;;;;;;;;;;;;;;32.38;32.21;102094.06;5046721;28;19925;-33
2022/06/15 09:39:52;;;;;;;;;;;;;;;32.06;29.18;102086.34;5046931;28;20392;-35
2022/06/15 09:42:21;;;;;;;;;;;;;;;32.00;32.20;102088.00;5044933;28;19925;-41
2022/06/15 09:44:53;;;;;;;;;;;;;;;32.07;32.57;102079.31;5040611;28;19925;-32
2022/06/15 09:47:29;;;;;;;;;;;;;;;32.10;32.50;102086.34;5042021;28;19948;-32
2022/06/15 09:49:58;;;;;;;;;;;;;;;32.11;31.06;102093.75;5045989;28;19925;-34
2022/06/15 09:52:31;;;;;;;;;;;;;;;31.98;32.32;102093.38;5041652;28;19935;-33
2022/06/15 09:55:02;;;;;;;;;;;;;;;31.91;31.36;102092.59;5040887;28;20389;-32
2022/06/15 09:57:30;;;;;;;;;;;;;;;32.05;32.57;102093.34;5041664;28;20011;-33
2022/06/15 09:59:57;;;;;;;;;;;;;;;32.32;31.62;102087.91;5041357;28;19929;-35
2022/06/15 10:02:28;;;;;;;;;;;;;;;32.55;31.65;102092.34;5040388;28;20390;-37
2022/06/15 10:04:57;;;;;;;;;;;;;;;32.67;30.50;102094.75;5042009;28;19932;-37
2022/06/15 10:07:28;;;;;;;;;;;;;;;32.49;28.74;102092.78;5041396;28;19929;-37
2022/06/15 10:09:58;;;;;;;;;;;;;;;32.35;32.14;102086.25;5038535;28;20015;-38
2022/06/15 10:12:59;;;;;;;;;;;;;;;32.41;30.11;102091.16;5046218;28;19929;-33
2022/06/15 10:15:31;;;;;;;;;;;;;;;32.35;29.12;102092.88;5044926;28;20306;-31
2022/06/15 10:18:02;;;;;;;;;;;;;;;32.36;31.23;102091.63;5045719;28;19925;-35
2022/06/15 10:20:31;;;;;;;;;;;;;;;32.15;31.29;102091.69;5046150;28;19987;-33
2022/06/15 10:23:01;;;;;;;;;;;;;;;32.08;31.62;102086.75;5042436;28;20315;-38
2022/06/15 10:25:31;;;;;;;;;;;;;;;32.23;29.72;102087.53;5044508;28;19949;-35
2022/06/15 10:28:13;;;;;;;;;;;;;;;32.01;28.14;102086.75;5046235;28;19924;-34
2022/06/15 10:30:50;;;;;;;;;;;;;;;31.83;30.55;102077.34;5039242;28;19947;-35
2022/06/15 10:33:20;;;;;;;;;;;;;;;31.84;30.27;102079.81;5042839;28;20289;-32
2022/06/15 10:35:53;;;;;;;;;;;;;;;31.62;29.87;102081.06;5044380;28;19935;-34
2022/06/15 10:38:21;;;;;;;;;;;;;;;31.31;29.65;102088.53;5045303;28;19928;-35
2022/06/15 10:40:55;;;;;;;;;;;;;;;31.34;31.56;102084.81;5042458;28;19951;-38
2022/06/15 10:43:26;;;;;;;;;;;;;;;31.51;31.01;102080.25;5045873;28;19924;-39
2022/06/15 10:45:59;;;;;;;;;;;;;;;31.71;31.58;102069.94;5042236;28;19925;-41
2022/06/15 10:48:31;;;;;;;;;;;;;;;32.01;31.85;102066.53;5045601;28;20294;-42
2022/06/15 10:51:01;;;;;;;;;;;;;;;32.23;28.76;102078.03;5042494;28;20336;-31
2022/06/15 10:53:40;;;;;;;;;;;;;;;32.16;28.71;102079.72;5044672;28;19928;-37
2022/06/15 11:02:10;;;;;;;;;;;;;;;32.24;29.63;102077.63;5041871;28;19947;-34
2022/06/15 11:04:51;;;;;;;;;;;;;;;32.36;30.53;102080.06;5044922;28;19925;-42
2022/06/15 11:07:26;;;;;;;;;;;;;;;32.39;30.52;102084.97;5044920;28;20019;-31
2022/06/15 11:10:05;;;;;;;;;;;;;;;32.35;29.22;102077.59;5045050;28;19925;-31
2022/06/15 11:12:34;;;;;;;;;;;;;;;32.43;29.96;102071.34;5044657;28;19957;-32
2022/06/15 11:18:01;;;;;;;;;;;;;;;32.32;30.17;102072.66;5044934;28;20386;-31
2022/06/15 11:18:21;;;;;;;;;;;;;;;32.27;29.11;102067.31;5043233;28;19976;-32
2022/06/15 11:20:54;;;;;;;;;;;;;;;32.35;30.04;102066.03;5044123;28;20405;-32
2022/06/15 11:23:25;;;;;;;;;;;;;;;32.32;29.62;102069.75;5045288;28;19929;-35
2022/06/15 11:25:55;;;;;;;;;;;;;;;32.22;28.83;102064.84;5044397;28;20392;-33
2022/06/15 11:28:26;;;;;;;;;;;;;;;32.18;29.10;102070.59;5044590;28;19960;-35
2022/06/15 11:30:58;;;;;;;;;;;;;;;31.96;30.07;102069.06;5041152;28;19931;-40
2022/06/15 11:33:30;;;;;;;;;;;;;;;31.91;29.22;102078.97;5048609;28;19935;-31
2022/06/15 11:36:03;;;;;;;;;;;;;;;31.94;29.32;102060.81;5040292;28;20019;-31
2022/06/15 11:38:39;;;;;;;;;;;;;;;31.89;30.21;102064.13;5045223;28;19925;-31
2022/06/15 11:41:13;;;;;;;;;;;;;;;31.86;29.44;102076.50;5040145;28;19924;-31
2022/06/15 11:43:43;;;;;;;;;;;;;;;31.71;28.73;102064.19;5039881;28;19925;-31
2022/06/15 11:46:15;;;;;;;;;;;;;;;31.69;29.73;102065.84;5040129;28;19970;-31
2022/06/15 11:48:48;;;;;;;;;;;;;;;31.75;30.42;102070.78;5038829;28;19925;-31
2022/06/15 11:51:26;;;;;;;;;;;;;;;31.90;30.96;102070.72;5039892;28;19931;-31
2022/06/15 11:54:01;;;;;;;;;;;;;;;31.86;27.34;102073.63;5038617;28;19926;-31
2022/06/15 11:56:32;;;;;;;;;;;;;;;31.95;30.14;102067.41;5043377;28;19932;-33
2022/06/15 11:59:05;;;;;;;;;;;;;;;32.01;29.02;102057.06;5044645;28;19976;-38
2022/06/15 12:01:57;;;;;;;;;;;;;;;31.90;28.51;102053.41;5042777;28;20385;-43
2022/06/15 12:04:39;;;;;;;;;;;;;;;31.83;31.18;102060.00;5044645;28;19932;-31
2022/06/15 12:07:13;;;;;;;;;;;;;;;31.69;29.89;102054.28;5043223;28;20275;-32
2022/06/15 12:09:46;;;;;;;;;;;;;;;31.87;29.99;102051.34;5037895;28;20361;-31
2022/06/15 12:15:10;;;;;;;;;;;;;;;31.92;28.62;102050.91;5038523;28;19929;-37
2022/06/15 12:17:40;;;;;;;;;;;;;;;31.67;27.67;102051.81;5038788;28;19925;-37
2022/06/15 12:20:16;;;;;;;;;;;;;;;31.63;28.69;102056.72;5040714;28;20364;-36
2022/06/15 12:22:50;;;;;;;;;;;;;;;31.69;30.61;102049.34;5042150;28;20480;-41
2022/06/15 12:25:22;;;;;;;;;;;;;;;31.76;30.43;102052.22;5044173;28;20016;-31
2022/06/15 12:27:53;;;;;;;;;;;;;;;31.80;29.71;102050.13;5042127;28;19964;-31
2022/06/15 12:30:28;;;;;;;;;;;;;;;31.58;29.32;102048.50;5037349;28;19928;-31
2022/06/15 12:33:02;;;;;;;;;;;;;;;31.46;30.42;102057.59;5037132;28;19925;-31
2022/06/15 12:35:33;;;;;;;;;;;;;;;31.39;31.54;102049.75;5037987;28;19936;-33
2022/06/15 12:38:14;;;;;;;;;;;;;;;31.32;30.42;102058.44;5039185;28;19971;-31
2022/06/15 12:40:44;;;;;;;;;;;;;;;31.29;30.66;102059.25;5038215;28;20400;-33
2022/06/15 12:43:16;;;;;;;;;;;;;;;31.31;29.69;102053.91;5040441;28;19925;-36
2022/06/15 12:45:46;;;;;;;;;;;;;;;31.17;29.97;102056.81;5038043;28;20488;-31
2022/06/15 12:48:22;;;;;;;;;;;;;;;31.06;32.98;102064.59;5044096;28;19931;-32
2022/06/15 12:50:54;;;;;;;;;;;;;;;31.01;31.87;102068.69;5043039;28;19975;-33
2022/06/15 12:53:32;;;;;;;;;;;;;;;30.98;32.85;102072.41;5043559;28;19957;-32
2022/06/15 12:56:05;;;;;;;;;;;;;;;30.99;32.72;102067.47;5043997;28;19978;-39
2022/06/15 12:58:37;;;;;;;;;;;;;;;31.00;31.33;102064.16;5043601;28;20285;-31
2022/06/15 13:01:08;;;;;;;;;;;;;;;30.87;31.11;102071.56;5043860;28;19936;-31
2022/06/15 13:03:42;;;;;;;;;;;;;;;30.68;32.31;102067.03;5045786;28;19925;-39
2022/06/15 13:06:20;;;;;;;;;;;;;;;30.59;33.06;102071.50;5047172;28;19928;-33